createdAt,value
2023-03-02T00:01:17.682Z,22.20
2023-03-02T00:03:50.120Z,22.20
2023-03-02T00:06:20.181Z,22.20
2023-03-02T00:09:03.935Z,22.20
2023-03-02T00:11:23.278Z,22.30
2023-03-02T00:13:57.169Z,22.30
2023-03-02T00:16:38.745Z,22.30
2023-03-02T00:19:24.314Z,22.30
2023-03-02T00:21:54.966Z,22.30
2023-03-02T00:42:56.435Z,22.50
2023-03-02T00:45:26.244Z,22.60
2023-03-02T00:47:55.926Z,22.60
2023-03-02T00:50:25.832Z,22.70
2023-03-02T00:53:08.843Z,22.70
2023-03-02T00:55:41.823Z,22.80
2023-03-02T00:58:46.538Z,22.90
2023-03-02T01:07:04.450Z,22.90
2023-03-02T01:09:34.993Z,23.00
2023-03-02T01:12:05.081Z,23.00
2023-03-02T01:14:34.806Z,23.00
2023-03-02T01:17:05.363Z,23.00
2023-03-02T01:19:36.408Z,23.00
2023-03-02T01:22:06.613Z,23.00
2023-03-02T01:24:36.612Z,23.00
2023-03-02T01:27:06.621Z,23.10
2023-03-02T01:29:39.853Z,23.10
2023-03-02T01:32:10.032Z,23.20
2023-03-02T01:34:40.227Z,23.20
2023-03-02T01:37:10.192Z,23.20
2023-03-02T01:39:40.598Z,23.30
2023-03-02T01:42:10.649Z,23.30
2023-03-02T01:44:49.453Z,23.30
2023-03-02T01:47:26.938Z,23.30
2023-03-02T01:50:11.421Z,23.40
2023-03-02T01:52:41.469Z,23.40
2023-03-02T01:55:20.779Z,23.40
2023-03-02T02:01:38.116Z,23.50
2023-03-02T02:07:22.736Z,23.60
2023-03-02T02:09:56.364Z,23.70
2023-03-02T02:12:26.486Z,23.70
2023-03-02T02:14:57.861Z,23.70
2023-03-02T02:17:27.641Z,23.80
2023-03-02T02:20:06.051Z,23.80
2023-03-02T02:22:40.062Z,23.90
2023-03-02T02:25:11.172Z,24.00
2023-03-02T02:27:41.383Z,24.00
2023-03-02T02:30:12.910Z,24.10
2023-03-02T02:32:43.184Z,24.10
2023-03-02T02:35:14.278Z,24.20
2023-03-02T02:37:46.045Z,24.20
2023-03-02T02:40:17.479Z,24.30
2023-03-02T02:42:48.481Z,24.40
2023-03-02T02:45:22.463Z,24.40
2023-03-02T02:47:53.037Z,24.40
2023-03-02T02:50:24.380Z,24.50
2023-03-02T02:52:55.394Z,24.60
2023-03-02T02:55:29.469Z,24.70
2023-03-02T02:58:01.546Z,24.70
2023-03-02T03:00:31.442Z,24.90
2023-03-02T03:03:02.449Z,24.80
2023-03-02T03:05:32.437Z,25.00
2023-03-02T03:08:09.772Z,25.10
2023-03-02T03:10:44.286Z,25.10
2023-03-02T03:13:14.522Z,25.20
2023-03-02T03:15:45.214Z,25.30
2023-03-02T03:18:15.064Z,25.40
2023-03-02T03:20:46.263Z,25.50
2023-03-02T03:23:16.579Z,25.60
2023-03-02T03:25:46.440Z,25.70
2023-03-02T03:28:16.560Z,25.90
2023-03-02T03:30:46.654Z,25.90
2023-03-02T03:33:19.353Z,26.10
2023-03-02T03:35:52.357Z,26.20
2023-03-02T03:38:22.473Z,26.40
2023-03-02T03:40:52.632Z,26.50
2023-03-02T03:43:22.525Z,26.60
2023-03-02T03:45:53.028Z,26.70
2023-03-02T03:48:22.878Z,26.90
2023-03-02T03:50:53.001Z,27.00
2023-03-02T03:53:22.957Z,27.10
2023-03-02T03:55:52.941Z,27.20
2023-03-02T03:58:22.863Z,27.30
2023-03-02T04:00:53.568Z,27.40
2023-03-02T04:03:23.462Z,27.50
2023-03-02T04:05:53.788Z,27.60
2023-03-02T04:08:24.428Z,27.80
2023-03-02T04:10:54.930Z,27.90
2023-03-02T04:13:24.785Z,28.10
2023-03-02T04:15:55.236Z,28.20
2023-03-02T04:18:25.579Z,28.30
2023-03-02T04:20:55.479Z,28.40
2023-03-02T04:23:25.570Z,28.40
2023-03-02T04:25:55.419Z,28.50
2023-03-02T04:28:25.481Z,28.50
2023-03-02T04:30:55.539Z,28.50
2023-03-02T04:33:25.450Z,28.60
2023-03-02T04:38:30.955Z,28.60
2023-03-02T04:41:02.672Z,28.70
2023-03-02T04:43:33.513Z,28.70
2023-03-02T04:46:03.716Z,28.80
2023-03-02T04:48:33.890Z,29.00
2023-03-02T04:51:03.988Z,29.00
2023-03-02T04:53:34.071Z,29.20
2023-03-02T04:56:04.093Z,29.30
2023-03-02T04:58:34.227Z,29.30
2023-03-02T05:01:17.118Z,29.30
2023-03-02T05:03:47.228Z,29.40
2023-03-02T05:06:17.351Z,29.40
2023-03-02T05:08:47.519Z,29.60
2023-03-02T05:11:19.441Z,29.60
2023-03-02T05:13:49.442Z,29.60
2023-03-02T05:16:19.943Z,29.60
2023-03-02T05:18:50.904Z,29.70
2023-03-02T05:21:22.211Z,29.70
2023-03-02T05:23:52.504Z,29.80
2023-03-02T05:26:22.564Z,29.80
2023-03-02T05:28:54.019Z,29.80
2023-03-02T05:31:24.851Z,29.90
2023-03-02T05:33:54.749Z,29.90
2023-03-02T05:36:24.924Z,30.00
2023-03-02T05:38:55.043Z,30.10
2023-03-02T05:41:24.947Z,30.20
2023-03-02T05:43:55.605Z,30.20
2023-03-02T05:46:25.767Z,30.20
2023-03-02T05:49:24.004Z,30.30
2023-03-02T05:51:54.065Z,30.30
2023-03-02T05:54:23.965Z,30.40
2023-03-02T05:56:56.280Z,30.50
2023-03-02T05:59:26.548Z,30.50
2023-03-02T06:01:59.204Z,30.50
2023-03-02T06:04:29.357Z,30.50
2023-03-02T06:06:59.133Z,30.50
2023-03-02T06:09:29.059Z,30.50
2023-03-02T06:11:58.978Z,30.50
2023-03-02T06:14:28.690Z,30.50
2023-03-02T06:16:58.629Z,30.50
2023-03-02T06:19:28.473Z,30.50
2023-03-02T06:21:59.536Z,30.50
2023-03-02T06:24:29.220Z,30.60
2023-03-02T06:26:59.159Z,30.70
2023-03-02T06:29:29.179Z,30.70
2023-03-02T06:31:58.952Z,30.70
2023-03-02T06:34:30.137Z,30.70
2023-03-02T06:37:00.161Z,30.80
2023-03-02T06:39:29.968Z,30.80
2023-03-02T06:42:07.586Z,30.80
2023-03-02T06:44:34.116Z,30.80
2023-03-02T06:47:03.896Z,30.80
2023-03-02T06:52:43.575Z,30.80
2023-03-02T06:55:13.309Z,30.90
2023-03-02T06:57:43.124Z,30.90
2023-03-02T07:00:18.264Z,31.00
2023-03-02T07:02:49.791Z,31.00
2023-03-02T07:05:20.198Z,31.00
2023-03-02T07:07:51.304Z,31.00
2023-03-02T07:10:21.275Z,31.00
2023-03-02T07:15:42.180Z,31.10
2023-03-02T07:18:12.030Z,31.00
2023-03-02T07:20:41.845Z,31.00
2023-03-02T07:23:11.941Z,31.10
2023-03-02T07:25:41.785Z,31.10
2023-03-02T07:28:11.702Z,31.10
2023-03-02T07:30:41.500Z,31.00
2023-03-02T07:33:11.497Z,31.00
2023-03-02T07:35:41.324Z,31.00
2023-03-02T07:38:11.089Z,31.00
2023-03-02T07:40:45.095Z,31.00
2023-03-02T07:43:14.956Z,31.00
2023-03-02T07:45:44.703Z,31.00
2023-03-02T07:48:15.097Z,31.00
2023-03-02T07:50:47.303Z,30.90
2023-03-02T07:53:20.049Z,30.90
2023-03-02T07:55:49.847Z,30.90
2023-03-02T07:58:19.719Z,30.80
2023-03-02T08:00:55.619Z,30.80
2023-03-02T08:03:42.123Z,30.80
2023-03-02T08:06:13.681Z,30.80
2023-03-02T08:08:43.532Z,30.80
2023-03-02T08:11:17.335Z,30.80
2023-03-02T08:13:48.524Z,30.80
2023-03-02T08:19:22.108Z,30.80
2023-03-02T08:21:51.854Z,30.80
2023-03-02T08:24:23.640Z,30.80
2023-03-02T08:26:53.778Z,30.80
2023-03-02T08:29:24.792Z,30.70
2023-03-02T08:31:54.881Z,30.80
2023-03-02T08:34:27.194Z,30.80
2023-03-02T08:36:56.908Z,30.80
2023-03-02T08:39:29.002Z,30.80
2023-03-02T08:41:58.417Z,30.80
2023-03-02T08:44:31.477Z,30.80
2023-03-02T08:47:02.709Z,30.70
2023-03-02T08:49:32.688Z,30.70
2023-03-02T08:55:08.915Z,30.80
2023-03-02T09:00:31.659Z,30.80
2023-03-02T09:03:08.192Z,30.80
2023-03-02T09:11:16.402Z,30.70
2023-03-02T09:13:46.302Z,30.70
2023-03-02T09:16:29.346Z,30.70
2023-03-02T09:19:37.643Z,30.70
2023-03-02T09:22:08.092Z,30.70
2023-03-02T09:24:38.541Z,30.60
2023-03-02T09:27:10.328Z,30.60
2023-03-02T09:29:42.468Z,30.60
2023-03-02T09:32:16.935Z,30.50
2023-03-02T09:34:48.003Z,30.60
2023-03-02T09:37:17.974Z,30.50
2023-03-02T09:40:06.457Z,30.50
2023-03-02T09:42:46.434Z,30.40
2023-03-02T09:45:23.660Z,30.40
2023-03-02T09:47:58.111Z,30.40
2023-03-02T09:54:04.345Z,30.30
2023-03-02T09:56:39.011Z,30.30
2023-03-02T09:59:09.974Z,30.30
2023-03-02T10:01:50.067Z,30.20
2023-03-02T10:04:49.873Z,30.20
2023-03-02T10:13:09.380Z,30.10
2023-03-02T10:16:01.899Z,30.10
2023-03-02T10:18:32.917Z,30.10
2023-03-02T10:22:08.207Z,30.00
2023-03-02T10:24:28.673Z,30.00
2023-03-02T10:26:57.772Z,29.90
2023-03-02T10:35:25.254Z,29.80
2023-03-02T10:37:56.248Z,29.80
2023-03-02T10:50:59.440Z,29.70
2023-03-02T10:53:05.258Z,29.60
2023-03-02T10:56:18.304Z,29.60
2023-03-02T11:04:09.668Z,29.40
2023-03-02T11:06:49.242Z,29.40
2023-03-02T11:09:31.355Z,29.40
2023-03-02T11:12:04.869Z,29.30
2023-03-02T11:17:34.068Z,29.30
2023-03-02T11:23:48.814Z,29.20
2023-03-02T11:26:19.816Z,29.20
2023-03-02T11:35:27.776Z,29.10
2023-03-02T11:37:59.416Z,29.00
2023-03-02T11:40:41.314Z,29.00
2023-03-02T11:43:14.571Z,28.90
2023-03-02T11:45:51.704Z,28.90
2023-03-02T11:48:26.490Z,28.90
2023-03-02T11:51:00.722Z,28.90
2023-03-02T11:53:32.769Z,28.80
2023-03-02T11:56:02.686Z,28.80
2023-03-02T11:58:33.888Z,28.80
2023-03-02T12:01:04.225Z,28.80
2023-03-02T12:06:55.660Z,28.70
2023-03-02T12:09:26.748Z,28.70
2023-03-02T12:11:58.187Z,28.60
2023-03-02T12:14:29.434Z,28.60
2023-03-02T12:17:12.156Z,28.60
2023-03-02T12:22:29.605Z,28.60
2023-03-02T12:25:17.482Z,28.60
2023-03-02T12:27:53.082Z,28.50
2023-03-02T12:30:33.494Z,28.50
2023-03-02T12:33:14.521Z,28.50
2023-03-02T12:38:42.565Z,28.40
2023-03-02T12:41:21.346Z,28.40
2023-03-02T12:43:57.476Z,28.40
2023-03-02T12:46:32.200Z,28.40
2023-03-02T12:49:21.231Z,28.40
2023-03-02T12:51:55.492Z,28.40
2023-03-02T12:54:26.757Z,28.30
2023-03-02T12:57:07.362Z,28.30
2023-03-02T13:02:30.954Z,28.20
2023-03-02T13:05:01.880Z,28.20
2023-03-02T13:07:32.881Z,28.20
2023-03-02T13:12:56.000Z,28.10
2023-03-02T13:15:25.871Z,28.10
2023-03-02T13:17:56.913Z,28.00
2023-03-02T13:20:31.021Z,28.00
2023-03-02T13:23:00.726Z,28.00
2023-03-02T13:25:40.132Z,27.90
2023-03-02T13:28:12.273Z,27.90
2023-03-02T13:30:43.558Z,27.90
2023-03-02T13:33:17.818Z,27.80
2023-03-02T13:35:48.741Z,27.70
2023-03-02T13:38:22.646Z,27.80
2023-03-02T13:40:53.388Z,27.70
2023-03-02T13:43:27.549Z,27.70
2023-03-02T13:46:04.667Z,27.70
2023-03-02T13:48:34.904Z,27.60
2023-03-02T13:51:25.349Z,27.60
2023-03-02T13:53:59.429Z,27.60
2023-03-02T13:56:34.875Z,27.50
2023-03-02T13:59:04.714Z,27.50
2023-03-02T14:01:34.415Z,27.40
2023-03-02T14:04:04.299Z,27.40
2023-03-02T14:06:34.501Z,27.40
2023-03-02T14:09:05.874Z,27.40
2023-03-02T14:11:36.943Z,27.40
2023-03-02T14:14:08.023Z,27.30
2023-03-02T14:16:38.486Z,27.30
2023-03-02T14:19:08.398Z,27.30
2023-03-02T14:21:38.190Z,27.20
2023-03-02T14:24:11.405Z,27.20
2023-03-02T14:26:44.596Z,27.20
2023-03-02T14:32:35.500Z,27.10
2023-03-02T14:38:09.590Z,27.10
2023-03-02T14:40:58.033Z,27.00
2023-03-02T14:43:27.967Z,27.00
2023-03-02T14:45:58.346Z,27.00
2023-03-02T14:48:28.293Z,26.90
2023-03-02T14:51:06.983Z,26.90
2023-03-02T14:53:37.400Z,26.90
2023-03-02T14:56:08.835Z,26.80
2023-03-02T14:58:39.858Z,26.80
2023-03-02T15:01:09.577Z,26.80
2023-03-02T15:03:56.934Z,26.70
2023-03-02T15:06:28.886Z,26.70
2023-03-02T15:09:01.173Z,26.70
2023-03-02T15:11:31.282Z,26.60
2023-03-02T15:14:01.290Z,26.60
2023-03-02T15:16:39.954Z,26.50
2023-03-02T15:19:10.883Z,26.50
2023-03-02T15:21:47.787Z,26.40
2023-03-02T15:24:19.959Z,26.40
2023-03-02T15:29:59.549Z,26.40
2023-03-02T15:32:29.310Z,26.30
2023-03-02T15:34:59.139Z,26.30
2023-03-02T15:37:29.370Z,26.30
2023-03-02T15:39:59.132Z,26.20
2023-03-02T15:42:28.854Z,26.20
2023-03-02T15:45:00.202Z,26.20
2023-03-02T15:50:06.265Z,26.10
2023-03-02T15:52:35.991Z,26.00
2023-03-02T15:55:05.911Z,26.00
2023-03-02T15:57:37.023Z,26.00
2023-03-02T16:00:07.208Z,26.00
2023-03-02T16:02:37.405Z,26.00
2023-03-02T16:05:07.718Z,25.90
2023-03-02T16:07:38.391Z,25.90
2023-03-02T16:10:27.122Z,25.90
2023-03-02T16:12:59.536Z,25.80
2023-03-02T16:15:29.202Z,25.80
2023-03-02T16:17:59.087Z,25.80
2023-03-02T16:23:20.909Z,25.70
2023-03-02T16:25:51.123Z,25.60
2023-03-02T16:28:21.274Z,25.60
2023-03-02T16:30:52.381Z,25.60
2023-03-02T16:33:22.051Z,25.60
2023-03-02T16:35:51.984Z,25.50
2023-03-02T16:38:21.787Z,25.50
2023-03-02T16:40:52.840Z,25.50
2023-03-02T16:43:24.479Z,25.50
2023-03-02T16:45:54.595Z,25.50
2023-03-02T16:48:25.009Z,25.50
2023-03-02T16:53:50.102Z,25.50
2023-03-02T16:56:20.048Z,25.50
2023-03-02T16:58:50.162Z,25.50
2023-03-02T17:01:21.138Z,25.40
2023-03-02T17:03:51.979Z,25.40
2023-03-02T17:06:23.353Z,25.50
2023-03-02T17:08:56.394Z,25.30
2023-03-02T17:11:26.222Z,25.30
2023-03-02T17:14:03.246Z,25.30
2023-03-02T17:16:33.788Z,25.20
2023-03-02T17:19:03.440Z,25.10
2023-03-02T17:21:33.243Z,25.10
2023-03-02T17:24:35.775Z,25.00
2023-03-02T17:27:32.476Z,25.00
2023-03-02T17:30:02.349Z,24.90
2023-03-02T17:32:32.731Z,24.90
2023-03-02T17:35:02.469Z,24.80
2023-03-02T17:37:32.314Z,24.70
2023-03-02T17:40:02.195Z,24.70
2023-03-02T17:42:32.053Z,24.70
2023-03-02T17:45:01.939Z,24.60
2023-03-02T17:47:33.184Z,24.60
2023-03-02T17:50:04.735Z,24.60
2023-03-02T17:52:35.059Z,24.50
2023-03-02T17:55:04.847Z,24.50
2023-03-02T17:57:34.871Z,24.40
2023-03-02T18:00:06.199Z,24.40
2023-03-02T18:02:36.115Z,24.40
2023-03-02T18:05:06.259Z,24.40
2023-03-02T18:07:35.857Z,24.40
2023-03-02T18:10:05.926Z,24.30
2023-03-02T18:12:36.025Z,24.30
2023-03-02T18:15:09.318Z,24.30
2023-03-02T18:17:39.356Z,24.30
2023-03-02T18:25:50.960Z,24.20
2023-03-02T18:28:36.126Z,24.20
2023-03-02T18:31:05.906Z,24.10
2023-03-02T18:33:36.092Z,24.10
2023-03-02T18:36:06.540Z,24.00
2023-03-02T18:38:36.693Z,24.00
2023-03-02T18:41:07.811Z,24.00
2023-03-02T18:43:38.848Z,24.00
2023-03-02T18:46:23.277Z,24.00
2023-03-02T18:48:53.527Z,23.90
2023-03-02T18:51:27.157Z,23.90
2023-03-02T18:53:59.312Z,23.90
2023-03-02T18:56:28.583Z,23.90
2023-03-02T18:58:58.500Z,23.90
2023-03-02T19:01:29.387Z,23.80
2023-03-02T19:04:00.748Z,23.80
2023-03-02T19:06:30.676Z,23.80
2023-03-02T19:09:19.732Z,23.70
2023-03-02T19:11:49.542Z,23.70
2023-03-02T19:14:19.201Z,23.70
2023-03-02T19:16:51.975Z,23.70
2023-03-02T19:19:24.135Z,23.60
2023-03-02T19:21:53.930Z,23.50
2023-03-02T19:24:23.631Z,23.50
2023-03-02T19:29:37.943Z,23.50
2023-03-02T19:32:11.237Z,23.50
2023-03-02T19:34:41.409Z,23.50
2023-03-02T19:37:12.841Z,23.50
2023-03-02T19:39:42.111Z,23.50
2023-03-02T19:42:11.789Z,23.40
2023-03-02T19:44:41.498Z,23.40
2023-03-02T19:47:11.280Z,23.40
2023-03-02T19:49:42.190Z,23.40
2023-03-02T19:52:15.060Z,23.40
2023-03-02T19:54:45.998Z,23.40
2023-03-02T19:57:19.342Z,23.40
2023-03-02T19:59:49.296Z,23.30
2023-03-02T20:02:19.718Z,23.30
2023-03-02T20:04:50.865Z,23.30
2023-03-02T20:07:20.617Z,23.30
2023-03-02T20:10:00.640Z,23.20
2023-03-02T20:15:18.975Z,23.10
2023-03-02T20:26:14.415Z,23.10
2023-03-02T20:28:44.145Z,23.10
2023-03-02T20:31:14.968Z,23.00
2023-03-02T20:33:48.253Z,23.00
2023-03-02T20:36:17.586Z,23.00
2023-03-02T20:38:48.510Z,23.00
2023-03-02T20:44:11.156Z,22.90
2023-03-02T20:46:42.542Z,22.90
2023-03-02T20:49:15.136Z,22.90
2023-03-02T20:51:45.102Z,22.90
2023-03-02T20:54:15.105Z,22.90
2023-03-02T20:56:44.778Z,22.90
2023-03-02T20:59:15.537Z,22.90
2023-03-02T21:01:45.587Z,22.90
2023-03-02T21:04:15.329Z,22.80
2023-03-02T21:06:45.743Z,22.80
2023-03-02T21:09:15.452Z,22.80
2023-03-02T21:11:45.211Z,22.80
2023-03-02T21:14:15.552Z,22.80
2023-03-02T21:16:46.206Z,22.80
2023-03-02T21:19:17.471Z,22.80
2023-03-02T21:21:47.117Z,22.80
2023-03-02T21:24:21.579Z,22.80
2023-03-02T21:26:52.585Z,22.80
2023-03-02T21:29:23.002Z,22.80
2023-03-02T21:31:53.012Z,22.70
2023-03-02T21:34:23.269Z,22.80
2023-03-02T21:36:56.663Z,22.80
2023-03-02T21:39:26.365Z,22.80
2023-03-02T21:41:56.416Z,22.80
2023-03-02T21:44:26.782Z,22.80
2023-03-02T21:46:56.487Z,22.80
2023-03-02T21:49:26.270Z,22.70
2023-03-02T21:51:55.945Z,22.70
2023-03-02T21:54:25.941Z,22.70
2023-03-02T21:56:56.072Z,22.70
2023-03-02T22:02:25.085Z,22.60
2023-03-02T22:04:54.785Z,22.60
2023-03-02T22:07:24.528Z,22.60
2023-03-02T22:09:54.227Z,22.60
2023-03-02T22:13:09.322Z,22.60
2023-03-02T22:18:30.417Z,22.60
2023-03-02T22:21:00.227Z,22.50
2023-03-02T22:23:30.055Z,22.60
2023-03-02T22:26:01.023Z,22.50
2023-03-02T22:28:33.655Z,22.50
2023-03-02T22:31:03.505Z,22.50
2023-03-02T22:33:34.501Z,22.40
2023-03-02T22:36:05.465Z,22.40
2023-03-02T22:38:35.478Z,22.40
2023-03-02T22:41:05.622Z,22.40
2023-03-02T22:43:36.651Z,22.40
2023-03-02T22:46:21.075Z,22.40
2023-03-02T22:48:51.932Z,22.30
2023-03-02T22:51:22.768Z,22.30
2023-03-02T22:53:54.071Z,22.30
2023-03-02T22:56:34.175Z,22.30
2023-03-02T22:59:05.665Z,22.30
2023-03-02T23:01:42.221Z,22.30
2023-03-02T23:04:13.281Z,22.30
2023-03-02T23:06:50.102Z,22.20
2023-03-02T23:09:22.072Z,22.20
2023-03-02T23:14:50.707Z,22.20
2023-03-02T23:17:24.681Z,22.20
2023-03-02T23:19:54.807Z,22.20
2023-03-02T23:22:29.855Z,22.10
2023-03-02T23:25:05.754Z,22.10
2023-03-02T23:27:35.561Z,22.10
2023-03-02T23:30:07.101Z,22.10
2023-03-02T23:32:37.630Z,22.10
2023-03-02T23:35:11.140Z,22.10
2023-03-02T23:37:40.967Z,22.00
2023-03-02T23:40:11.168Z,22.00
2023-03-02T23:42:40.851Z,22.00
2023-03-02T23:45:11.146Z,22.00
2023-03-02T23:47:40.845Z,22.00
2023-03-02T23:50:11.754Z,22.00
2023-03-02T23:52:42.076Z,22.00
2023-03-02T23:55:12.413Z,22.00
2023-03-02T23:57:42.311Z,22.00
